createdAt,value
2017-11-12T00:00:02.084Z,790.31
2017-11-12T00:00:06.453Z,790.29
2017-11-12T00:00:10.819Z,790.32
2017-11-12T00:00:15.313Z,790.35
2017-11-12T00:00:19.814Z,790.28
2017-11-12T00:00:24.308Z,790.35
2017-11-12T00:00:28.532Z,790.27
2017-11-12T00:00:32.907Z,790.29
2017-11-12T00:00:37.286Z,790.29
2017-11-12T00:00:41.506Z,790.29
2017-11-12T00:00:45.859Z,790.31
2017-11-12T00:00:50.222Z,790.3
2017-11-12T00:00:54.584Z,790.32
2017-11-12T00:00:59.070Z,790.33
2017-11-12T00:01:03.574Z,790.33
2017-11-12T00:01:07.528Z,790.32
2017-11-12T00:01:12.017Z,790.33
2017-11-12T00:01:16.507Z,790.35
2017-11-12T00:01:21.009Z,790.35
2017-11-12T00:01:25.493Z,790.33
2017-11-12T00:01:29.859Z,790.29
2017-11-12T00:01:34.215Z,790.3
2017-11-12T00:01:38.451Z,790.34
2017-11-12T00:01:42.949Z,790.3
2017-11-12T00:01:47.196Z,790.37
2017-11-12T00:01:51.550Z,790.33
2017-11-12T00:01:55.905Z,790.35
2017-11-12T00:02:00.130Z,790.34
2017-11-12T00:02:04.238Z,790.32
2017-11-12T00:02:08.457Z,790.35
2017-11-12T00:02:12.821Z,790.35
2017-11-12T00:02:17.211Z,790.32
2017-11-12T00:02:21.562Z,790.37
2017-11-12T00:02:25.925Z,790.34
2017-11-12T00:02:30.318Z,790.35
2017-11-12T00:02:34.798Z,790.34
2017-11-12T00:02:39.299Z,790.35
2017-11-12T00:02:43.823Z,790.35
2017-11-12T00:02:48.173Z,790.37
2017-11-12T00:02:52.543Z,790.35
2017-11-12T00:02:56.810Z,790.35
2017-11-12T00:03:01.166Z,790.35
2017-11-12T00:03:05.653Z,790.32
2017-11-12T00:03:10.025Z,790.38
2017-11-12T00:03:14.521Z,790.39
2017-11-12T00:03:19.012Z,790.4
2017-11-12T00:03:23.373Z,790.36
2017-11-12T00:03:27.618Z,790.36
2017-11-12T00:03:32.118Z,790.39
2017-11-12T00:03:36.479Z,790.37
2017-11-12T00:03:40.824Z,790.37
2017-11-12T00:03:44.909Z,790.39
2017-11-12T00:03:49.009Z,790.37
2017-11-12T00:03:53.491Z,790.37
2017-11-12T00:03:57.975Z,790.35
2017-11-12T00:04:02.323Z,790.38
2017-11-12T00:04:06.814Z,790.39
2017-11-12T00:04:11.331Z,790.34
2017-11-12T00:04:15.684Z,790.35
2017-11-12T00:04:19.781Z,790.38
2017-11-12T00:04:24.148Z,790.36
2017-11-12T00:04:28.368Z,790.35
2017-11-12T00:04:32.595Z,790.36
2017-11-12T00:04:37.093Z,790.38
2017-11-12T00:04:41.580Z,790.37
2017-11-12T00:04:45.938Z,790.35
2017-11-12T00:04:50.436Z,790.37
2017-11-12T00:04:54.789Z,790.38
2017-11-12T00:04:59.157Z,790.35
2017-11-12T00:05:03.512Z,790.36
2017-11-12T00:05:08.016Z,790.34
2017-11-12T00:05:12.230Z,790.39
2017-11-12T00:05:16.584Z,790.36
2017-11-12T00:05:21.076Z,790.35
2017-11-12T00:05:25.561Z,790.37
2017-11-12T00:05:29.809Z,790.38
2017-11-12T00:05:34.185Z,790.42
2017-11-12T00:05:38.668Z,790.35
2017-11-12T00:05:43.161Z,790.38
2017-11-12T00:05:47.520Z,790.4
2017-11-12T00:05:52.004Z,790.37
2017-11-12T00:05:56.498Z,790.39
2017-11-12T00:06:00.859Z,790.4
2017-11-12T00:06:05.157Z,790.39
2017-11-12T00:06:09.507Z,790.38
2017-11-12T00:06:13.872Z,790.39
2017-11-12T00:06:18.238Z,790.38
2017-11-12T00:06:22.725Z,790.37
2017-11-12T00:06:27.234Z,790.31
2017-11-12T00:06:31.794Z,790.4
2017-11-12T00:06:36.283Z,790.35
2017-11-12T00:06:40.772Z,790.35
2017-11-12T00:06:45.282Z,790.37
2017-11-12T00:06:49.506Z,790.38
2017-11-12T00:06:53.729Z,790.35
2017-11-12T00:06:58.232Z,790.37
2017-11-12T00:07:02.885Z,790.38
2017-11-12T00:07:07.243Z,790.37
2017-11-12T00:07:11.605Z,790.4
2017-11-12T00:07:15.988Z,790.4
2017-11-12T00:07:20.445Z,790.33
2017-11-12T00:07:24.799Z,790.35
2017-11-12T00:07:29.027Z,790.36
2017-11-12T00:07:33.382Z,790.35
2017-11-12T00:07:37.750Z,790.37
2017-11-12T00:07:42.159Z,790.36
2017-11-12T00:07:46.381Z,790.39
2017-11-12T00:07:50.872Z,790.39
2017-11-12T00:07:55.370Z,790.39
2017-11-12T00:07:59.910Z,790.4
2017-11-12T00:08:04.406Z,790.41
2017-11-12T00:08:08.637Z,790.42
2017-11-12T00:08:13.163Z,790.42
2017-11-12T00:08:17.647Z,790.35
2017-11-12T00:08:21.729Z,790.35
2017-11-12T00:08:25.983Z,790.35
2017-11-12T00:08:30.202Z,790.36
2017-11-12T00:08:34.556Z,790.42
2017-11-12T00:08:38.917Z,790.4
2017-11-12T00:08:43.283Z,790.39
2017-11-12T00:08:47.776Z,790.4
2017-11-12T00:08:52.276Z,790.39
2017-11-12T00:08:56.514Z,790.39
2017-11-12T00:09:00.735Z,790.37
2017-11-12T00:09:05.239Z,790.41
2017-11-12T00:09:09.735Z,790.34
2017-11-12T00:09:13.953Z,790.39
2017-11-12T00:09:18.301Z,790.41
2017-11-12T00:09:22.842Z,790.42
2017-11-12T00:09:27.207Z,790.44
2017-11-12T00:09:31.439Z,790.39
2017-11-12T00:09:35.686Z,790.39
2017-11-12T00:09:39.912Z,790.4
2017-11-12T00:09:44.399Z,790.41
2017-11-12T00:09:48.769Z,790.4
2017-11-12T00:09:53.117Z,790.39
2017-11-12T00:09:57.612Z,790.42
2017-11-12T00:10:02.102Z,790.37
2017-11-12T00:10:06.195Z,790.37
2017-11-12T00:10:10.281Z,790.44
2017-11-12T00:10:14.637Z,790.43
2017-11-12T00:10:19.132Z,790.41
2017-11-12T00:10:23.613Z,790.42
2017-11-12T00:10:27.975Z,790.41
2017-11-12T00:10:32.485Z,790.41
2017-11-12T00:10:36.700Z,790.39
2017-11-12T00:10:41.059Z,790.43
2017-11-12T00:10:45.422Z,790.43
2017-11-12T00:10:49.785Z,790.44
2017-11-12T00:10:54.149Z,790.37
2017-11-12T00:10:58.522Z,790.39
2017-11-12T00:11:03.365Z,790.45
2017-11-12T00:11:07.457Z,790.38
2017-11-12T00:11:11.961Z,790.45
2017-11-12T00:11:16.464Z,790.44
2017-11-12T00:11:20.812Z,790.44
2017-11-12T00:11:25.308Z,790.45
2017-11-12T00:11:29.533Z,790.46
2017-11-12T00:11:34.035Z,790.48
2017-11-12T00:11:38.249Z,790.47
2017-11-12T00:11:42.737Z,790.41
2017-11-12T00:11:46.954Z,790.43
2017-11-12T00:11:51.308Z,790.45
2017-11-12T00:11:55.711Z,790.5
2017-11-12T00:12:00.194Z,790.48
2017-11-12T00:12:04.913Z,790.5
2017-11-12T00:12:09.142Z,790.47
2017-11-12T00:12:13.625Z,790.5
2017-11-12T00:12:17.839Z,790.5
2017-11-12T00:12:22.203Z,790.51
2017-11-12T00:12:26.573Z,790.54
2017-11-12T00:12:30.924Z,790.52
2017-11-12T00:12:35.424Z,790.52
2017-11-12T00:12:39.911Z,790.54
2017-11-12T00:12:44.266Z,790.54
2017-11-12T00:12:48.785Z,790.55
2017-11-12T00:12:53.301Z,790.51
2017-11-12T00:12:57.657Z,790.54
2017-11-12T00:13:02.445Z,790.56
2017-11-12T00:13:06.796Z,790.56
2017-11-12T00:13:11.020Z,790.54
2017-11-12T00:13:15.375Z,790.56
2017-11-12T00:13:19.601Z,790.57
2017-11-12T00:13:24.094Z,790.58
2017-11-12T00:13:28.462Z,790.58
2017-11-12T00:13:32.816Z,790.55
2017-11-12T00:13:37.306Z,790.6
2017-11-12T00:13:41.390Z,790.48
2017-11-12T00:13:45.894Z,790.58
2017-11-12T00:13:50.107Z,790.54
2017-11-12T00:13:54.601Z,790.57
2017-11-12T00:13:59.094Z,790.59
2017-11-12T00:14:03.608Z,790.6
2017-11-12T00:14:07.835Z,790.55
2017-11-12T00:14:12.189Z,790.57
2017-11-12T00:14:16.684Z,790.51
2017-11-12T00:14:21.035Z,790.57
2017-11-12T00:14:25.385Z,790.57
2017-11-12T00:14:29.756Z,790.55
2017-11-12T00:14:34.118Z,790.53
2017-11-12T00:14:38.469Z,790.56
2017-11-12T00:14:42.955Z,790.57
2017-11-12T00:14:47.500Z,790.58
2017-11-12T00:14:51.989Z,790.61
2017-11-12T00:14:56.353Z,790.59
2017-11-12T00:15:00.857Z,790.58
2017-11-12T00:15:05.384Z,790.61
2017-11-12T00:15:09.501Z,790.59
2017-11-12T00:15:13.720Z,790.56
2017-11-12T00:15:18.070Z,790.55
2017-11-12T00:15:22.298Z,790.55
2017-11-12T00:15:26.524Z,790.54
2017-11-12T00:15:30.611Z,790.57
2017-11-12T00:15:34.969Z,790.6
2017-11-12T00:15:39.465Z,790.58
2017-11-12T00:15:43.822Z,790.59
2017-11-12T00:15:48.312Z,790.6
2017-11-12T00:15:52.836Z,790.59
2017-11-12T00:15:57.184Z,790.6
2017-11-12T00:16:01.539Z,790.6
2017-11-12T00:16:06.014Z,790.56
2017-11-12T00:16:10.368Z,790.62
2017-11-12T00:16:14.854Z,790.59
2017-11-12T00:16:19.350Z,790.6
2017-11-12T00:16:23.715Z,790.61
2017-11-12T00:16:27.947Z,790.61
2017-11-12T00:16:32.304Z,790.58
2017-11-12T00:16:36.818Z,790.58
2017-11-12T00:16:41.166Z,790.62
2017-11-12T00:16:45.663Z,790.63
2017-11-12T00:16:50.027Z,790.59
2017-11-12T00:16:54.509Z,790.62
2017-11-12T00:16:58.999Z,790.58
2017-11-12T00:17:03.361Z,790.6
2017-11-12T00:17:07.849Z,790.57
2017-11-12T00:17:12.206Z,790.61
2017-11-12T00:17:16.718Z,790.56
2017-11-12T00:17:20.932Z,790.56
2017-11-12T00:17:25.289Z,790.56
2017-11-12T00:17:29.660Z,790.55
2017-11-12T00:17:33.897Z,790.55
2017-11-12T00:17:38.250Z,790.55
2017-11-12T00:17:42.742Z,790.56
2017-11-12T00:17:47.231Z,790.56
2017-11-12T00:17:51.593Z,790.58
2017-11-12T00:17:55.950Z,790.52
2017-11-12T00:18:00.478Z,790.52
2017-11-12T00:18:04.840Z,790.51
2017-11-12T00:18:09.213Z,790.48
2017-11-12T00:18:13.621Z,790.48
2017-11-12T00:18:18.102Z,790.5
2017-11-12T00:18:22.466Z,790.53
2017-11-12T00:18:26.838Z,790.47
2017-11-12T00:18:31.205Z,790.47
2017-11-12T00:18:35.554Z,790.51
2017-11-12T00:18:40.058Z,790.47
2017-11-12T00:18:44.417Z,790.53
2017-11-12T00:18:48.638Z,790.52
2017-11-12T00:18:53.137Z,790.54
2017-11-12T00:18:57.622Z,790.53
2017-11-12T00:19:01.979Z,790.55
2017-11-12T00:19:06.352Z,790.49
2017-11-12T00:19:10.708Z,790.52
2017-11-12T00:19:15.061Z,790.53
2017-11-12T00:19:19.552Z,790.53
2017-11-12T00:19:23.959Z,790.49
2017-11-12T00:19:27.889Z,790.54
2017-11-12T00:19:32.392Z,790.52
2017-11-12T00:19:36.621Z,790.54
2017-11-12T00:19:40.975Z,790.53
2017-11-12T00:19:45.464Z,790.54
2017-11-12T00:19:49.548Z,790.58
2017-11-12T00:19:53.906Z,790.52
2017-11-12T00:19:58.402Z,790.54
2017-11-12T00:20:02.814Z,790.54
2017-11-12T00:20:07.310Z,790.55
2017-11-12T00:20:11.535Z,790.55
2017-11-12T00:20:15.897Z,790.54
2017-11-12T00:20:20.275Z,790.49
2017-11-12T00:20:24.760Z,790.52
2017-11-12T00:20:28.995Z,790.48
2017-11-12T00:20:33.499Z,790.55
2017-11-12T00:20:37.985Z,790.56
2017-11-12T00:20:42.478Z,790.54
2017-11-12T00:20:46.993Z,790.57
2017-11-12T00:20:51.203Z,790.52
2017-11-12T00:20:55.554Z,790.54
2017-11-12T00:20:59.910Z,790.54
2017-11-12T00:21:04.572Z,790.54
2017-11-12T00:21:08.951Z,790.55
2017-11-12T00:21:13.455Z,790.53
2017-11-12T00:21:17.938Z,790.55
2017-11-12T00:21:22.435Z,790.54
2017-11-12T00:21:26.665Z,790.55
2017-11-12T00:21:30.619Z,790.53
2017-11-12T00:21:35.106Z,790.53
2017-11-12T00:21:39.611Z,790.54
2017-11-12T00:21:43.971Z,790.53
2017-11-12T00:21:48.321Z,790.53
2017-11-12T00:21:52.674Z,790.57
2017-11-12T00:21:57.209Z,790.55
2017-11-12T00:22:01.713Z,790.54
2017-11-12T00:22:05.944Z,790.55
2017-11-12T00:22:10.314Z,790.53
2017-11-12T00:22:14.673Z,790.54
2017-11-12T00:22:18.891Z,790.5
2017-11-12T00:22:23.266Z,790.52
2017-11-12T00:22:27.502Z,790.5
2017-11-12T00:22:31.729Z,790.51
2017-11-12T00:22:35.957Z,790.52
2017-11-12T00:22:40.347Z,790.49
2017-11-12T00:22:44.694Z,790.52
2017-11-12T00:22:49.183Z,790.49
2017-11-12T00:22:53.701Z,790.53
2017-11-12T00:22:58.049Z,790.51
2017-11-12T00:23:02.410Z,790.54
2017-11-12T00:23:06.793Z,790.51
2017-11-12T00:23:11.277Z,790.5
2017-11-12T00:23:15.764Z,790.51
2017-11-12T00:23:20.261Z,790.5
2017-11-12T00:23:24.737Z,790.5
2017-11-12T00:23:28.819Z,790.52
2017-11-12T00:23:33.314Z,790.49
2017-11-12T00:23:37.415Z,790.51
2017-11-12T00:23:41.896Z,790.49
2017-11-12T00:23:45.983Z,790.51
2017-11-12T00:23:50.344Z,790.45
2017-11-12T00:23:54.692Z,790.46
2017-11-12T00:23:58.909Z,790.45
2017-11-12T00:24:03.382Z,790.47
2017-11-12T00:24:07.642Z,790.49
2017-11-12T00:24:12.126Z,790.47
2017-11-12T00:24:16.468Z,790.54
2017-11-12T00:24:20.954Z,790.5
2017-11-12T00:24:25.168Z,790.49
2017-11-12T00:24:29.382Z,790.5
2017-11-12T00:24:33.741Z,790.49
2017-11-12T00:24:38.090Z,790.46
2017-11-12T00:24:42.445Z,790.51
2017-11-12T00:24:46.948Z,790.5
2017-11-12T00:24:51.171Z,790.49
2017-11-12T00:24:55.658Z,790.49
2017-11-12T00:25:00.147Z,790.51
2017-11-12T00:25:04.819Z,790.5
2017-11-12T00:25:09.306Z,790.46
2017-11-12T00:25:13.797Z,790.49
2017-11-12T00:25:18.297Z,790.48
2017-11-12T00:25:22.791Z,790.47
2017-11-12T00:25:27.149Z,790.47
2017-11-12T00:25:31.366Z,790.49
2017-11-12T00:25:35.741Z,790.48
2017-11-12T00:25:40.234Z,790.52
2017-11-12T00:25:44.456Z,790.49
2017-11-12T00:25:48.826Z,790.49
2017-11-12T00:25:53.046Z,790.49
2017-11-12T00:25:57.537Z,790.49
2017-11-12T00:26:01.924Z,790.49
2017-11-12T00:26:06.139Z,790.5
2017-11-12T00:26:10.491Z,790.49
2017-11-12T00:26:14.842Z,790.51
2017-11-12T00:26:19.238Z,790.49
2017-11-12T00:26:23.589Z,790.49
2017-11-12T00:26:27.812Z,790.49
2017-11-12T00:26:32.184Z,790.5
2017-11-12T00:26:36.665Z,790.49
2017-11-12T00:26:41.023Z,790.47
2017-11-12T00:26:45.524Z,790.52
2017-11-12T00:26:50.012Z,790.5
2017-11-12T00:26:54.369Z,790.46
2017-11-12T00:26:58.867Z,790.44
2017-11-12T00:27:03.360Z,790.47
2017-11-12T00:27:07.715Z,790.49
2017-11-12T00:27:11.947Z,790.5
2017-11-12T00:27:16.305Z,790.51
2017-11-12T00:27:20.789Z,790.54
2017-11-12T00:27:25.273Z,790.5
2017-11-12T00:27:29.666Z,790.51
2017-11-12T00:27:33.903Z,790.51
2017-11-12T00:27:38.263Z,790.53
2017-11-12T00:27:42.759Z,790.53
2017-11-12T00:27:47.266Z,790.52
2017-11-12T00:27:51.622Z,790.52
2017-11-12T00:27:55.844Z,790.54
2017-11-12T00:28:00.217Z,790.56
2017-11-12T00:28:04.744Z,790.51
2017-11-12T00:28:08.992Z,790.49
2017-11-12T00:28:13.328Z,790.52
2017-11-12T00:28:17.685Z,790.51
2017-11-12T00:28:22.175Z,790.44
2017-11-12T00:28:26.662Z,790.49
2017-11-12T00:28:30.887Z,790.46
2017-11-12T00:28:35.377Z,790.47
2017-11-12T00:28:39.740Z,790.44
2017-11-12T00:28:43.963Z,790.44
2017-11-12T00:28:48.199Z,790.46
2017-11-12T00:28:52.737Z,790.46
2017-11-12T00:28:57.093Z,790.47
2017-11-12T00:29:01.459Z,790.48
2017-11-12T00:29:05.698Z,790.48
2017-11-12T00:29:10.054Z,790.51
2017-11-12T00:29:14.405Z,790.5
2017-11-12T00:29:18.809Z,790.52
2017-11-12T00:29:23.035Z,790.48
2017-11-12T00:29:27.403Z,790.51
2017-11-12T00:29:31.769Z,790.5
2017-11-12T00:29:36.261Z,790.48
2017-11-12T00:29:40.742Z,790.49
2017-11-12T00:29:45.238Z,790.51
2017-11-12T00:29:49.454Z,790.49
2017-11-12T00:29:53.674Z,790.51
2017-11-12T00:29:58.189Z,790.48
2017-11-12T00:30:02.549Z,790.51
2017-11-12T00:30:06.915Z,790.48
2017-11-12T00:30:11.282Z,790.48
2017-11-12T00:30:15.652Z,790.47
2017-11-12T00:30:19.733Z,790.5
2017-11-12T00:30:24.238Z,790.5
2017-11-12T00:30:28.457Z,790.53
2017-11-12T00:30:32.812Z,790.51
2017-11-12T00:30:37.034Z,790.51
2017-11-12T00:30:41.388Z,790.55
2017-11-12T00:30:45.618Z,790.5
2017-11-12T00:30:50.101Z,790.52
2017-11-12T00:30:54.482Z,790.51
2017-11-12T00:30:58.979Z,790.55
2017-11-12T00:31:03.612Z,790.54
2017-11-12T00:31:07.835Z,790.55
2017-11-12T00:31:12.376Z,790.55
2017-11-12T00:31:16.862Z,790.55
2017-11-12T00:31:21.347Z,790.56
2017-11-12T00:31:25.711Z,790.57
2017-11-12T00:31:29.795Z,790.55
2017-11-12T00:31:34.012Z,790.54
2017-11-12T00:31:38.386Z,790.59
2017-11-12T00:31:42.882Z,790.58
2017-11-12T00:31:47.104Z,790.55
2017-11-12T00:31:51.592Z,790.55
2017-11-12T00:31:55.838Z,790.54
2017-11-12T00:32:00.207Z,790.57
2017-11-12T00:32:04.722Z,790.55
2017-11-12T00:32:09.228Z,790.56
2017-11-12T00:32:13.591Z,790.58
2017-11-12T00:32:17.948Z,790.5
2017-11-12T00:32:22.181Z,790.52
2017-11-12T00:32:26.546Z,790.54
2017-11-12T00:32:30.769Z,790.58
2017-11-12T00:32:34.863Z,790.55
2017-11-12T00:32:39.222Z,790.55
2017-11-12T00:32:43.702Z,790.52
2017-11-12T00:32:48.187Z,790.56
2017-11-12T00:32:52.676Z,790.57
2017-11-12T00:32:57.041Z,790.58
2017-11-12T00:33:01.259Z,790.56
2017-11-12T00:33:05.769Z,790.59
2017-11-12T00:33:10.258Z,790.6
2017-11-12T00:33:14.743Z,790.58
2017-11-12T00:33:19.236Z,790.58
2017-11-12T00:33:23.725Z,790.61
2017-11-12T00:33:28.213Z,790.56
2017-11-12T00:33:32.738Z,790.6
2017-11-12T00:33:37.099Z,790.6
2017-11-12T00:33:41.454Z,790.58
2017-11-12T00:33:45.953Z,790.56
2017-11-12T00:33:50.436Z,790.57
2017-11-12T00:33:54.783Z,790.58
2017-11-12T00:33:59.141Z,790.59
2017-11-12T00:34:03.541Z,790.6
2017-11-12T00:34:08.029Z,790.59
2017-11-12T00:34:12.265Z,790.58
2017-11-12T00:34:16.359Z,790.56
2017-11-12T00:34:20.445Z,790.54
2017-11-12T00:34:24.794Z,790.58
2017-11-12T00:34:29.026Z,790.56
2017-11-12T00:34:33.389Z,790.57
2017-11-12T00:34:37.762Z,790.56
2017-11-12T00:34:42.120Z,790.56
2017-11-12T00:34:46.653Z,790.57
2017-11-12T00:34:51.142Z,790.53
2017-11-12T00:34:55.647Z,790.53
2017-11-12T00:34:59.895Z,790.51
2017-11-12T00:35:04.127Z,790.58
2017-11-12T00:35:08.494Z,790.55
2017-11-12T00:35:12.859Z,790.55
2017-11-12T00:35:17.368Z,790.58
2017-11-12T00:35:21.745Z,790.56
2017-11-12T00:35:26.104Z,790.55
2017-11-12T00:35:30.193Z,790.56
2017-11-12T00:35:34.552Z,790.57
2017-11-12T00:35:38.916Z,790.58
2017-11-12T00:35:43.182Z,790.57
2017-11-12T00:35:47.543Z,790.56
2017-11-12T00:35:52.047Z,790.55
2017-11-12T00:35:56.564Z,790.59
2017-11-12T00:36:01.058Z,790.57
2017-11-12T00:36:05.424Z,790.58
2017-11-12T00:36:09.780Z,790.54
2017-11-12T00:36:14.131Z,790.54
2017-11-12T00:36:18.350Z,790.56
2017-11-12T00:36:22.568Z,790.53
2017-11-12T00:36:26.927Z,790.55
2017-11-12T00:36:31.290Z,790.54
2017-11-12T00:36:35.645Z,790.53
2017-11-12T00:36:39.994Z,790.55
2017-11-12T00:36:44.358Z,790.54
2017-11-12T00:36:48.732Z,790.57
2017-11-12T00:36:53.088Z,790.51
2017-11-12T00:36:57.577Z,790.5
2017-11-12T00:37:02.321Z,790.5
2017-11-12T00:37:06.857Z,790.52
2017-11-12T00:37:11.346Z,790.52
2017-11-12T00:37:15.844Z,790.52
2017-11-12T00:37:20.328Z,790.51
2017-11-12T00:37:24.815Z,790.54
2017-11-12T00:37:28.912Z,790.51
2017-11-12T00:37:33.436Z,790.52
2017-11-12T00:37:37.942Z,790.5
2017-11-12T00:37:42.444Z,790.52
2017-11-12T00:37:46.803Z,790.5
2017-11-12T00:37:51.153Z,790.45
2017-11-12T00:37:55.516Z,790.48
2017-11-12T00:37:59.924Z,790.47
2017-11-12T00:38:04.412Z,790.48
2017-11-12T00:38:08.908Z,790.49
2017-11-12T00:38:13.276Z,790.47
2017-11-12T00:38:17.626Z,790.52
2017-11-12T00:38:21.974Z,790.53
2017-11-12T00:38:26.501Z,790.49
2017-11-12T00:38:30.724Z,790.5
2017-11-12T00:38:34.941Z,790.52
2017-11-12T00:38:39.435Z,790.5
2017-11-12T00:38:43.523Z,790.53
2017-11-12T00:38:47.871Z,790.51
2017-11-12T00:38:52.234Z,790.49
2017-11-12T00:38:56.661Z,790.49
2017-11-12T00:39:01.145Z,790.5
2017-11-12T00:39:05.653Z,790.51
2017-11-12T00:39:10.183Z,790.5
2017-11-12T00:39:14.718Z,790.52
2017-11-12T00:39:19.074Z,790.53
2017-11-12T00:39:23.426Z,790.48
2017-11-12T00:39:27.941Z,790.5
2017-11-12T00:39:32.173Z,790.5
2017-11-12T00:39:36.402Z,790.49
2017-11-12T00:39:40.634Z,790.5
2017-11-12T00:39:44.855Z,790.51
2017-11-12T00:39:49.211Z,790.49
2017-11-12T00:39:53.439Z,790.49
2017-11-12T00:39:57.806Z,790.46
2017-11-12T00:40:02.296Z,790.46
2017-11-12T00:40:06.800Z,790.49
2017-11-12T00:40:11.155Z,790.46
2017-11-12T00:40:15.509Z,790.5
2017-11-12T00:40:20.010Z,790.46
2017-11-12T00:40:24.431Z,790.48
2017-11-12T00:40:28.788Z,790.49
2017-11-12T00:40:33.152Z,790.49
2017-11-12T00:40:37.237Z,790.47
2017-11-12T00:40:41.729Z,790.48
2017-11-12T00:40:45.956Z,790.46
2017-11-12T00:40:50.210Z,790.42
2017-11-12T00:40:54.567Z,790.4
2017-11-12T00:40:58.919Z,790.41
2017-11-12T00:41:03.523Z,790.48
2017-11-12T00:41:07.741Z,790.44
2017-11-12T00:41:11.975Z,790.45
2017-11-12T00:41:16.343Z,790.45
2017-11-12T00:41:20.692Z,790.43
2017-11-12T00:41:24.916Z,790.46
2017-11-12T00:41:29.145Z,790.44
2017-11-12T00:41:33.679Z,790.46
2017-11-12T00:41:37.762Z,790.46
2017-11-12T00:41:42.109Z,790.42
2017-11-12T00:41:46.478Z,790.4
2017-11-12T00:41:50.964Z,790.47
2017-11-12T00:41:55.452Z,790.43
2017-11-12T00:41:59.826Z,790.42
2017-11-12T00:42:04.315Z,790.42
2017-11-12T00:42:08.669Z,790.43
2017-11-12T00:42:12.914Z,790.48
2017-11-12T00:42:17.410Z,790.46
2017-11-12T00:42:21.901Z,790.51
2017-11-12T00:42:26.403Z,790.48
2017-11-12T00:42:30.767Z,790.47
2017-11-12T00:42:35.267Z,790.47
2017-11-12T00:42:39.642Z,790.46
2017-11-12T00:42:44.139Z,790.51
2017-11-12T00:42:48.641Z,790.46
2017-11-12T00:42:53.007Z,790.53
2017-11-12T00:42:57.239Z,790.49
2017-11-12T00:43:01.799Z,790.51
2017-11-12T00:43:06.296Z,790.5
2017-11-12T00:43:10.803Z,790.5
2017-11-12T00:43:15.023Z,790.5
2017-11-12T00:43:19.385Z,790.52
2017-11-12T00:43:23.747Z,790.5
2017-11-12T00:43:27.967Z,790.49
2017-11-12T00:43:32.464Z,790.52
2017-11-12T00:43:36.704Z,790.52
2017-11-12T00:43:41.061Z,790.52
2017-11-12T00:43:45.285Z,790.53
2017-11-12T00:43:49.788Z,790.53
2017-11-12T00:43:54.034Z,790.52
2017-11-12T00:43:58.516Z,790.52
2017-11-12T00:44:03.085Z,790.57
2017-11-12T00:44:07.453Z,790.52
2017-11-12T00:44:11.832Z,790.53
2017-11-12T00:44:16.194Z,790.58
2017-11-12T00:44:20.552Z,790.56
2017-11-12T00:44:25.055Z,790.56
2017-11-12T00:44:29.401Z,790.58
2017-11-12T00:44:33.619Z,790.57
2017-11-12T00:44:37.854Z,790.6
2017-11-12T00:44:42.206Z,790.6
2017-11-12T00:44:46.425Z,790.58
2017-11-12T00:44:50.792Z,790.58
2017-11-12T00:44:55.284Z,790.62
2017-11-12T00:44:59.382Z,790.6
2017-11-12T00:45:04.081Z,790.57
2017-11-12T00:45:08.445Z,790.58
2017-11-12T00:45:12.803Z,790.58
2017-11-12T00:45:17.317Z,790.57
2017-11-12T00:45:21.825Z,790.63
2017-11-12T00:45:26.186Z,790.6
2017-11-12T00:45:30.279Z,790.55
2017-11-12T00:45:34.671Z,790.58
2017-11-12T00:45:38.620Z,790.6
2017-11-12T00:45:42.847Z,790.55
2017-11-12T00:45:47.096Z,790.58
2017-11-12T00:45:51.596Z,790.59
2017-11-12T00:45:55.820Z,790.6
2017-11-12T00:46:00.072Z,790.61
2017-11-12T00:46:04.529Z,790.62
2017-11-12T00:46:08.884Z,790.63
2017-11-12T00:46:13.545Z,790.64
2017-11-12T00:46:18.048Z,790.62
2017-11-12T00:46:22.406Z,790.67
2017-11-12T00:46:26.897Z,790.64
2017-11-12T00:46:30.989Z,790.64
2017-11-12T00:46:35.467Z,790.64
2017-11-12T00:46:39.955Z,790.64
2017-11-12T00:46:44.452Z,790.64
2017-11-12T00:46:48.683Z,790.67
2017-11-12T00:46:53.036Z,790.65
2017-11-12T00:46:57.529Z,790.67
2017-11-12T00:47:02.173Z,790.66
2017-11-12T00:47:06.666Z,790.71
2017-11-12T00:47:11.039Z,790.69
2017-11-12T00:47:15.398Z,790.7
2017-11-12T00:47:19.885Z,790.73
2017-11-12T00:47:24.266Z,790.69
2017-11-12T00:47:28.349Z,790.72
2017-11-12T00:47:32.836Z,790.69
2017-11-12T00:47:37.215Z,790.72
2017-11-12T00:47:41.712Z,790.73
2017-11-12T00:47:46.196Z,790.73
2017-11-12T00:47:50.558Z,790.71
2017-11-12T00:47:54.914Z,790.73
2017-11-12T00:47:59.410Z,790.75
2017-11-12T00:48:03.737Z,790.72
2017-11-12T00:48:08.093Z,790.76
2017-11-12T00:48:12.462Z,790.75
2017-11-12T00:48:16.696Z,790.78
2017-11-12T00:48:21.192Z,790.72
2017-11-12T00:48:25.688Z,790.78
2017-11-12T00:48:29.930Z,790.76
2017-11-12T00:48:34.425Z,790.78
2017-11-12T00:48:38.923Z,790.79
2017-11-12T00:48:43.425Z,790.8
2017-11-12T00:48:47.786Z,790.8
2017-11-12T00:48:51.870Z,790.8
2017-11-12T00:48:56.349Z,790.81
2017-11-12T00:49:00.860Z,790.82
2017-11-12T00:49:05.366Z,790.83
2017-11-12T00:49:09.860Z,790.84
2017-11-12T00:49:14.374Z,790.87
2017-11-12T00:49:18.868Z,790.83
2017-11-12T00:49:23.359Z,790.85
2017-11-12T00:49:27.450Z,790.84
2017-11-12T00:49:31.861Z,790.88
2017-11-12T00:49:36.102Z,790.88
2017-11-12T00:49:40.601Z,790.9
2017-11-12T00:49:44.827Z,790.89
2017-11-12T00:49:49.311Z,790.92
2017-11-12T00:49:53.815Z,790.9
2017-11-12T00:49:58.310Z,790.91
2017-11-12T00:50:02.806Z,790.92
2017-11-12T00:50:07.187Z,790.9
2017-11-12T00:50:11.577Z,790.94
2017-11-12T00:50:15.926Z,790.89
2017-11-12T00:50:20.410Z,790.87
2017-11-12T00:50:24.823Z,790.92
2017-11-12T00:50:28.911Z,790.96
2017-11-12T00:50:33.256Z,790.93
2017-11-12T00:50:37.623Z,790.91
2017-11-12T00:50:42.133Z,790.94
2017-11-12T00:50:46.492Z,790.97
2017-11-12T00:50:51.001Z,790.96
2017-11-12T00:50:55.092Z,790.95
2017-11-12T00:50:59.319Z,790.97
2017-11-12T00:51:03.673Z,791
2017-11-12T00:51:08.034Z,790.98
2017-11-12T00:51:12.527Z,790.99
2017-11-12T00:51:17.010Z,790.99
2017-11-12T00:51:21.545Z,791.02
2017-11-12T00:51:26.038Z,791.04
2017-11-12T00:51:30.533Z,791.04
2017-11-12T00:51:35.045Z,791.02
2017-11-12T00:51:39.523Z,791.03
2017-11-12T00:51:43.757Z,791.06
2017-11-12T00:51:48.246Z,791.06
2017-11-12T00:51:52.478Z,791.05
2017-11-12T00:51:56.698Z,791.07
2017-11-12T00:52:01.200Z,791.06
2017-11-12T00:52:05.598Z,791
2017-11-12T00:52:09.952Z,791.02
2017-11-12T00:52:14.451Z,791.01
2017-11-12T00:52:18.809Z,791.01
2017-11-12T00:52:23.171Z,791.08
2017-11-12T00:52:27.395Z,791.05
2017-11-12T00:52:31.751Z,791.08
2017-11-12T00:52:36.119Z,791.08
2017-11-12T00:52:40.624Z,791.04
2017-11-12T00:52:44.893Z,791.07
2017-11-12T00:52:48.977Z,791.08
2017-11-12T00:52:53.328Z,791.08
2017-11-12T00:52:57.696Z,791.07
2017-11-12T00:53:02.039Z,791.1
2017-11-12T00:53:06.529Z,791.1
2017-11-12T00:53:11.050Z,791.12
2017-11-12T00:53:15.421Z,791.12
2017-11-12T00:53:19.637Z,791.11
2017-11-12T00:53:24.130Z,791.13
2017-11-12T00:53:28.385Z,791.14
2017-11-12T00:53:32.746Z,791.16
2017-11-12T00:53:37.264Z,791.14
2017-11-12T00:53:41.363Z,791.13
2017-11-12T00:53:45.862Z,791.14
2017-11-12T00:53:50.217Z,791.13
2017-11-12T00:53:54.438Z,791.12
2017-11-12T00:53:58.926Z,791.13
2017-11-12T00:54:03.294Z,791.12
2017-11-12T00:54:07.678Z,791.12
2017-11-12T00:54:12.169Z,791.13
2017-11-12T00:54:16.518Z,791.15
2017-11-12T00:54:21.018Z,791.15
2017-11-12T00:54:25.386Z,791.15
2017-11-12T00:54:29.622Z,791.14
2017-11-12T00:54:34.003Z,791.17
2017-11-12T00:54:38.511Z,791.09
2017-11-12T00:54:43.002Z,791.11
2017-11-12T00:54:47.513Z,791.09
2017-11-12T00:54:51.884Z,791.15